sensor_id;sensor_type;location;lat;lon;timestamp;P1;durP1;ratioP1;P2;durP2;ratioP2
38653;SDS011;24413;52.450;20.706;2024-01-30T00:01:16;94.55;;;44.50;;
38653;SDS011;24413;52.450;20.706;2024-01-30T00:03:41;101.68;;;52.28;;
38653;SDS011;24413;52.450;20.706;2024-01-30T00:06:06;136.88;;;67.80;;
38653;SDS011;24413;52.450;20.706;2024-01-30T00:08:32;81.80;;;42.50;;
38653;SDS011;24413;52.450;20.706;2024-01-30T00:10:58;81.35;;;41.00;;
38653;SDS011;24413;52.450;20.706;2024-01-30T00:13:23;71.47;;;37.80;;
38653;SDS011;24413;52.450;20.706;2024-01-30T00:15:48;64.30;;;32.88;;
38653;SDS011;24413;52.450;20.706;2024-01-30T00:18:13;62.72;;;33.95;;
38653;SDS011;24413;52.450;20.706;2024-01-30T00:20:39;67.45;;;36.08;;
38653;SDS011;24413;52.450;20.706;2024-01-30T00:23:04;64.25;;;34.42;;
38653;SDS011;24413;52.450;20.706;2024-01-30T00:25:29;66.75;;;34.20;;
38653;SDS011;24413;52.450;20.706;2024-01-30T00:27:54;66.63;;;33.17;;
38653;SDS011;24413;52.450;20.706;2024-01-30T00:30:20;55.85;;;34.00;;
38653;SDS011;24413;52.450;20.706;2024-01-30T00:32:45;61.35;;;33.50;;
38653;SDS011;24413;52.450;20.706;2024-01-30T00:35:11;57.28;;;29.40;;
38653;SDS011;24413;52.450;20.706;2024-01-30T00:37:36;50.83;;;30.35;;
38653;SDS011;24413;52.450;20.706;2024-01-30T00:40:01;50.30;;;29.77;;
38653;SDS011;24413;52.450;20.706;2024-01-30T00:42:26;56.75;;;30.92;;
38653;SDS011;24413;52.450;20.706;2024-01-30T00:44:52;61.97;;;33.33;;
38653;SDS011;24413;52.450;20.706;2024-01-30T00:47:17;62.47;;;31.70;;
38653;SDS011;24413;52.450;20.706;2024-01-30T00:49:42;56.40;;;31.05;;
38653;SDS011;24413;52.450;20.706;2024-01-30T00:52:08;66.00;;;31.50;;
38653;SDS011;24413;52.450;20.706;2024-01-30T00:54:33;72.43;;;35.90;;
38653;SDS011;24413;52.450;20.706;2024-01-30T00:56:58;67.90;;;36.70;;
38653;SDS011;24413;52.450;20.706;2024-01-30T00:59:23;56.88;;;31.77;;
38653;SDS011;24413;52.450;20.706;2024-01-30T01:01:49;64.63;;;32.97;;
38653;SDS011;24413;52.450;20.706;2024-01-30T01:04:14;74.20;;;37.13;;
38653;SDS011;24413;52.450;20.706;2024-01-30T01:06:39;101.78;;;45.22;;
38653;SDS011;24413;52.450;20.706;2024-01-30T01:09:07;89.32;;;43.33;;
38653;SDS011;24413;52.450;20.706;2024-01-30T01:11:32;92.15;;;45.53;;
38653;SDS011;24413;52.450;20.706;2024-01-30T01:13:58;86.17;;;42.63;;
38653;SDS011;24413;52.450;20.706;2024-01-30T01:16:23;78.60;;;40.22;;
38653;SDS011;24413;52.450;20.706;2024-01-30T01:18:48;73.82;;;35.75;;
38653;SDS011;24413;52.450;20.706;2024-01-30T01:21:13;71.75;;;35.15;;
38653;SDS011;24413;52.450;20.706;2024-01-30T01:23:38;68.45;;;33.78;;
38653;SDS011;24413;52.450;20.706;2024-01-30T01:26:04;62.23;;;33.30;;
38653;SDS011;24413;52.450;20.706;2024-01-30T01:28:29;59.53;;;30.48;;
38653;SDS011;24413;52.450;20.706;2024-01-30T01:30:54;58.03;;;31.10;;
38653;SDS011;24413;52.450;20.706;2024-01-30T01:33:24;60.05;;;30.52;;
38653;SDS011;24413;52.450;20.706;2024-01-30T01:35:49;58.45;;;31.23;;
38653;SDS011;24413;52.450;20.706;2024-01-30T01:38:15;57.70;;;29.27;;
38653;SDS011;24413;52.450;20.706;2024-01-30T01:40:40;55.45;;;30.45;;
38653;SDS011;24413;52.450;20.706;2024-01-30T01:43:06;58.47;;;31.67;;
38653;SDS011;24413;52.450;20.706;2024-01-30T01:45:31;57.05;;;29.48;;
38653;SDS011;24413;52.450;20.706;2024-01-30T01:47:56;57.55;;;28.60;;
38653;SDS011;24413;52.450;20.706;2024-01-30T01:50:21;61.25;;;30.08;;
38653;SDS011;24413;52.450;20.706;2024-01-30T01:52:48;50.45;;;28.45;;
38653;SDS011;24413;52.450;20.706;2024-01-30T01:55:14;53.35;;;29.73;;
38653;SDS011;24413;52.450;20.706;2024-01-30T01:57:40;55.10;;;29.17;;
38653;SDS011;24413;52.450;20.706;2024-01-30T02:00:06;57.55;;;29.45;;
38653;SDS011;24413;52.450;20.706;2024-01-30T02:02:32;56.63;;;29.38;;
38653;SDS011;24413;52.450;20.706;2024-01-30T02:04:59;54.75;;;29.75;;
38653;SDS011;24413;52.450;20.706;2024-01-30T02:07:25;58.13;;;31.70;;
38653;SDS011;24413;52.450;20.706;2024-01-30T02:09:50;52.55;;;29.60;;
38653;SDS011;24413;52.450;20.706;2024-01-30T02:12:15;59.45;;;32.33;;
38653;SDS011;24413;52.450;20.706;2024-01-30T02:14:47;51.30;;;28.58;;
38653;SDS011;24413;52.450;20.706;2024-01-30T02:17:13;49.65;;;29.20;;
38653;SDS011;24413;52.450;20.706;2024-01-30T02:19:38;54.78;;;28.85;;
38653;SDS011;24413;52.450;20.706;2024-01-30T02:22:04;59.03;;;28.50;;
38653;SDS011;24413;52.450;20.706;2024-01-30T02:24:29;61.08;;;32.05;;
38653;SDS011;24413;52.450;20.706;2024-01-30T02:26:54;57.00;;;29.92;;
38653;SDS011;24413;52.450;20.706;2024-01-30T02:29:20;53.97;;;29.92;;
38653;SDS011;24413;52.450;20.706;2024-01-30T02:31:45;60.92;;;31.27;;
38653;SDS011;24413;52.450;20.706;2024-01-30T02:34:11;54.00;;;30.48;;
38653;SDS011;24413;52.450;20.706;2024-01-30T02:36:36;65.10;;;30.23;;
38653;SDS011;24413;52.450;20.706;2024-01-30T02:39:01;54.75;;;28.50;;
38653;SDS011;24413;52.450;20.706;2024-01-30T02:41:26;60.63;;;31.52;;
38653;SDS011;24413;52.450;20.706;2024-01-30T02:43:52;58.57;;;31.17;;
38653;SDS011;24413;52.450;20.706;2024-01-30T02:46:17;53.25;;;29.92;;
38653;SDS011;24413;52.450;20.706;2024-01-30T02:48:42;65.68;;;31.27;;
38653;SDS011;24413;52.450;20.706;2024-01-30T02:51:07;65.50;;;31.75;;
38653;SDS011;24413;52.450;20.706;2024-01-30T02:53:32;60.65;;;31.95;;
38653;SDS011;24413;52.450;20.706;2024-01-30T02:55:58;59.08;;;31.88;;
38653;SDS011;24413;52.450;20.706;2024-01-30T02:58:23;56.30;;;29.60;;
38653;SDS011;24413;52.450;20.706;2024-01-30T03:00:48;61.45;;;32.70;;
38653;SDS011;24413;52.450;20.706;2024-01-30T03:03:13;57.42;;;30.27;;
38653;SDS011;24413;52.450;20.706;2024-01-30T03:05:39;62.80;;;33.92;;
38653;SDS011;24413;52.450;20.706;2024-01-30T03:08:04;59.55;;;33.08;;
38653;SDS011;24413;52.450;20.706;2024-01-30T03:10:29;56.45;;;30.75;;
38653;SDS011;24413;52.450;20.706;2024-01-30T03:12:55;59.72;;;30.23;;
38653;SDS011;24413;52.450;20.706;2024-01-30T03:15:20;53.25;;;28.92;;
38653;SDS011;24413;52.450;20.706;2024-01-30T03:17:45;53.50;;;30.05;;
38653;SDS011;24413;52.450;20.706;2024-01-30T03:20:10;51.80;;;29.20;;
38653;SDS011;24413;52.450;20.706;2024-01-30T03:22:36;54.15;;;30.35;;
38653;SDS011;24413;52.450;20.706;2024-01-30T03:25:01;59.90;;;29.95;;
38653;SDS011;24413;52.450;20.706;2024-01-30T03:27:26;55.60;;;30.35;;
38653;SDS011;24413;52.450;20.706;2024-01-30T03:29:51;49.60;;;28.15;;
38653;SDS011;24413;52.450;20.706;2024-01-30T03:32:17;60.42;;;29.27;;
38653;SDS011;24413;52.450;20.706;2024-01-30T03:34:42;55.28;;;28.00;;
38653;SDS011;24413;52.450;20.706;2024-01-30T03:37:07;61.45;;;30.58;;
38653;SDS011;24413;52.450;20.706;2024-01-30T03:39:32;53.42;;;29.13;;
38653;SDS011;24413;52.450;20.706;2024-01-30T03:41:58;56.42;;;29.90;;
38653;SDS011;24413;52.450;20.706;2024-01-30T03:44:23;56.00;;;31.73;;
38653;SDS011;24413;52.450;20.706;2024-01-30T03:46:48;53.60;;;30.08;;
38653;SDS011;24413;52.450;20.706;2024-01-30T03:49:13;55.75;;;28.98;;
38653;SDS011;24413;52.450;20.706;2024-01-30T03:51:39;49.47;;;28.08;;
38653;SDS011;24413;52.450;20.706;2024-01-30T03:54:04;52.90;;;28.17;;
38653;SDS011;24413;52.450;20.706;2024-01-30T03:56:29;53.20;;;28.60;;
38653;SDS011;24413;52.450;20.706;2024-01-30T03:58:54;49.35;;;27.77;;
38653;SDS011;24413;52.450;20.706;2024-01-30T04:01:21;52.83;;;30.05;;
38653;SDS011;24413;52.450;20.706;2024-01-30T04:03:46;54.63;;;28.73;;
38653;SDS011;24413;52.450;20.706;2024-01-30T04:06:11;58.95;;;28.85;;
38653;SDS011;24413;52.450;20.706;2024-01-30T04:08:37;52.28;;;29.10;;
38653;SDS011;24413;52.450;20.706;2024-01-30T04:11:05;59.58;;;30.13;;
38653;SDS011;24413;52.450;20.706;2024-01-30T04:13:31;57.47;;;29.25;;
38653;SDS011;24413;52.450;20.706;2024-01-30T04:15:58;58.25;;;30.90;;
38653;SDS011;24413;52.450;20.706;2024-01-30T04:18:23;58.58;;;30.50;;
38653;SDS011;24413;52.450;20.706;2024-01-30T04:20:48;59.80;;;30.95;;
38653;SDS011;24413;52.450;20.706;2024-01-30T04:23:14;63.42;;;30.75;;
38653;SDS011;24413;52.450;20.706;2024-01-30T04:25:39;65.22;;;31.95;;
38653;SDS011;24413;52.450;20.706;2024-01-30T04:28:04;68.80;;;33.10;;
38653;SDS011;24413;52.450;20.706;2024-01-30T04:30:30;63.03;;;30.75;;
38653;SDS011;24413;52.450;20.706;2024-01-30T04:32:55;67.28;;;32.10;;
38653;SDS011;24413;52.450;20.706;2024-01-30T04:35:20;59.67;;;30.75;;
38653;SDS011;24413;52.450;20.706;2024-01-30T04:37:48;57.80;;;29.98;;
38653;SDS011;24413;52.450;20.706;2024-01-30T04:40:13;53.78;;;29.55;;
38653;SDS011;24413;52.450;20.706;2024-01-30T04:42:39;68.63;;;35.03;;
38653;SDS011;24413;52.450;20.706;2024-01-30T04:45:05;82.10;;;36.10;;
38653;SDS011;24413;52.450;20.706;2024-01-30T04:47:30;94.00;;;39.17;;
38653;SDS011;24413;52.450;20.706;2024-01-30T04:49:55;75.67;;;34.80;;
38653;SDS011;24413;52.450;20.706;2024-01-30T04:52:20;76.47;;;35.70;;
38653;SDS011;24413;52.450;20.706;2024-01-30T04:54:46;84.97;;;40.35;;
38653;SDS011;24413;52.450;20.706;2024-01-30T04:57:11;104.63;;;45.27;;
38653;SDS011;24413;52.450;20.706;2024-01-30T04:59:37;112.30;;;47.47;;
38653;SDS011;24413;52.450;20.706;2024-01-30T05:02:02;114.80;;;53.80;;
38653;SDS011;24413;52.450;20.706;2024-01-30T05:06:53;153.68;;;70.63;;
38653;SDS011;24413;52.450;20.706;2024-01-30T05:09:18;131.52;;;65.03;;
38653;SDS011;24413;52.450;20.706;2024-01-30T05:11:44;129.57;;;65.47;;
38653;SDS011;24413;52.450;20.706;2024-01-30T05:14:09;101.50;;;56.35;;
38653;SDS011;24413;52.450;20.706;2024-01-30T05:16:36;90.80;;;49.92;;
38653;SDS011;24413;52.450;20.706;2024-01-30T05:19:01;85.50;;;47.22;;
38653;SDS011;24413;52.450;20.706;2024-01-30T05:21:26;82.55;;;42.83;;
38653;SDS011;24413;52.450;20.706;2024-01-30T05:23:51;76.72;;;39.83;;
38653;SDS011;24413;52.450;20.706;2024-01-30T05:26:16;74.13;;;38.00;;
38653;SDS011;24413;52.450;20.706;2024-01-30T05:28:42;77.65;;;39.10;;
38653;SDS011;24413;52.450;20.706;2024-01-30T05:31:09;74.45;;;37.22;;
38653;SDS011;24413;52.450;20.706;2024-01-30T05:33:34;88.00;;;39.88;;
38653;SDS011;24413;52.450;20.706;2024-01-30T05:36:00;76.38;;;38.42;;
38653;SDS011;24413;52.450;20.706;2024-01-30T05:38:25;80.53;;;40.75;;
38653;SDS011;24413;52.450;20.706;2024-01-30T05:40:50;83.70;;;42.97;;
38653;SDS011;24413;52.450;20.706;2024-01-30T05:43:15;76.35;;;39.47;;
38653;SDS011;24413;52.450;20.706;2024-01-30T05:45:41;78.65;;;40.88;;
38653;SDS011;24413;52.450;20.706;2024-01-30T05:48:06;63.55;;;33.30;;
38653;SDS011;24413;52.450;20.706;2024-01-30T05:50:31;71.88;;;34.67;;
38653;SDS011;24413;52.450;20.706;2024-01-30T05:52:56;102.35;;;53.80;;
38653;SDS011;24413;52.450;20.706;2024-01-30T05:55:22;70.05;;;39.30;;
38653;SDS011;24413;52.450;20.706;2024-01-30T05:57:47;78.97;;;40.15;;
38653;SDS011;24413;52.450;20.706;2024-01-30T06:00:12;77.75;;;40.58;;
38653;SDS011;24413;52.450;20.706;2024-01-30T06:02:38;68.22;;;37.22;;
38653;SDS011;24413;52.450;20.706;2024-01-30T06:05:03;65.13;;;36.92;;
38653;SDS011;24413;52.450;20.706;2024-01-30T06:07:28;74.82;;;38.45;;
38653;SDS011;24413;52.450;20.706;2024-01-30T06:09:53;68.68;;;36.55;;
38653;SDS011;24413;52.450;20.706;2024-01-30T06:12:19;72.70;;;35.70;;
38653;SDS011;24413;52.450;20.706;2024-01-30T06:14:44;102.75;;;51.85;;
38653;SDS011;24413;52.450;20.706;2024-01-30T06:17:09;164.60;;;77.28;;
38653;SDS011;24413;52.450;20.706;2024-01-30T06:19:36;106.68;;;54.25;;
38653;SDS011;24413;52.450;20.706;2024-01-30T06:22:05;94.63;;;48.70;;
38653;SDS011;24413;52.450;20.706;2024-01-30T06:24:30;83.28;;;41.42;;
38653;SDS011;24413;52.450;20.706;2024-01-30T06:26:56;105.50;;;43.97;;
38653;SDS011;24413;52.450;20.706;2024-01-30T06:29:21;125.35;;;51.00;;
38653;SDS011;24413;52.450;20.706;2024-01-30T06:31:46;173.00;;;64.90;;
38653;SDS011;24413;52.450;20.706;2024-01-30T06:34:12;218.40;;;73.30;;
38653;SDS011;24413;52.450;20.706;2024-01-30T06:36:37;245.15;;;85.72;;
38653;SDS011;24413;52.450;20.706;2024-01-30T06:39:02;265.55;;;88.38;;
38653;SDS011;24413;52.450;20.706;2024-01-30T06:41:28;274.90;;;90.85;;
38653;SDS011;24413;52.450;20.706;2024-01-30T06:43:53;217.23;;;72.25;;
38653;SDS011;24413;52.450;20.706;2024-01-30T06:46:18;216.45;;;67.93;;
38653;SDS011;24413;52.450;20.706;2024-01-30T06:48:43;248.45;;;70.10;;
38653;SDS011;24413;52.450;20.706;2024-01-30T06:51:10;208.90;;;69.47;;
38653;SDS011;24413;52.450;20.706;2024-01-30T06:53:35;196.38;;;66.50;;
38653;SDS011;24413;52.450;20.706;2024-01-30T06:56:00;189.80;;;61.42;;
38653;SDS011;24413;52.450;20.706;2024-01-30T06:58:26;201.90;;;67.22;;
38653;SDS011;24413;52.450;20.706;2024-01-30T07:00:51;167.05;;;57.75;;
38653;SDS011;24413;52.450;20.706;2024-01-30T07:03:16;134.82;;;51.47;;
38653;SDS011;24413;52.450;20.706;2024-01-30T07:05:41;193.75;;;62.92;;
38653;SDS011;24413;52.450;20.706;2024-01-30T07:08:07;225.70;;;67.70;;
38653;SDS011;24413;52.450;20.706;2024-01-30T07:10:33;197.80;;;64.75;;
38653;SDS011;24413;52.450;20.706;2024-01-30T07:12:58;170.18;;;55.42;;
38653;SDS011;24413;52.450;20.706;2024-01-30T07:15:23;167.00;;;56.13;;
38653;SDS011;24413;52.450;20.706;2024-01-30T07:17:48;142.55;;;51.70;;
38653;SDS011;24413;52.450;20.706;2024-01-30T07:20:14;151.90;;;50.35;;
38653;SDS011;24413;52.450;20.706;2024-01-30T07:22:39;132.07;;;46.72;;
38653;SDS011;24413;52.450;20.706;2024-01-30T07:25:05;139.23;;;51.45;;
38653;SDS011;24413;52.450;20.706;2024-01-30T07:27:30;123.25;;;49.22;;
38653;SDS011;24413;52.450;20.706;2024-01-30T07:29:56;92.22;;;42.17;;
38653;SDS011;24413;52.450;20.706;2024-01-30T07:32:21;99.25;;;41.25;;
38653;SDS011;24413;52.450;20.706;2024-01-30T07:34:46;97.78;;;42.00;;
38653;SDS011;24413;52.450;20.706;2024-01-30T07:37:11;93.88;;;42.20;;
38653;SDS011;24413;52.450;20.706;2024-01-30T07:39:40;71.25;;;33.28;;
38653;SDS011;24413;52.450;20.706;2024-01-30T07:42:05;63.20;;;30.58;;
38653;SDS011;24413;52.450;20.706;2024-01-30T07:44:31;64.28;;;29.45;;
38653;SDS011;24413;52.450;20.706;2024-01-30T07:46:56;58.78;;;27.63;;
38653;SDS011;24413;52.450;20.706;2024-01-30T07:49:22;62.45;;;30.40;;
38653;SDS011;24413;52.450;20.706;2024-01-30T07:51:47;54.58;;;27.30;;
38653;SDS011;24413;52.450;20.706;2024-01-30T07:54:12;58.03;;;28.35;;
38653;SDS011;24413;52.450;20.706;2024-01-30T07:56:41;45.45;;;24.35;;
38653;SDS011;24413;52.450;20.706;2024-01-30T07:59:09;49.63;;;25.20;;
38653;SDS011;24413;52.450;20.706;2024-01-30T08:01:34;47.80;;;23.85;;
38653;SDS011;24413;52.450;20.706;2024-01-30T08:04:00;49.60;;;25.52;;
38653;SDS011;24413;52.450;20.706;2024-01-30T08:06:25;52.55;;;23.90;;
38653;SDS011;24413;52.450;20.706;2024-01-30T08:08:50;44.20;;;22.92;;
38653;SDS011;24413;52.450;20.706;2024-01-30T08:11:18;56.22;;;25.52;;
38653;SDS011;24413;52.450;20.706;2024-01-30T08:13:44;41.80;;;21.48;;
38653;SDS011;24413;52.450;20.706;2024-01-30T08:16:09;41.30;;;22.63;;
38653;SDS011;24413;52.450;20.706;2024-01-30T08:18:35;51.60;;;24.45;;
38653;SDS011;24413;52.450;20.706;2024-01-30T08:21:00;54.73;;;27.47;;
38653;SDS011;24413;52.450;20.706;2024-01-30T08:23:25;100.55;;;35.35;;
38653;SDS011;24413;52.450;20.706;2024-01-30T08:25:50;65.80;;;28.77;;
38653;SDS011;24413;52.450;20.706;2024-01-30T08:28:16;81.57;;;34.70;;
38653;SDS011;24413;52.450;20.706;2024-01-30T08:30:41;84.85;;;36.53;;
38653;SDS011;24413;52.450;20.706;2024-01-30T08:33:06;69.38;;;32.17;;
38653;SDS011;24413;52.450;20.706;2024-01-30T08:35:32;64.68;;;33.08;;
38653;SDS011;24413;52.450;20.706;2024-01-30T08:37:58;43.15;;;23.02;;
38653;SDS011;24413;52.450;20.706;2024-01-30T08:40:23;43.45;;;21.60;;
38653;SDS011;24413;52.450;20.706;2024-01-30T08:42:49;43.40;;;21.90;;
38653;SDS011;24413;52.450;20.706;2024-01-30T08:45:14;55.00;;;25.67;;
38653;SDS011;24413;52.450;20.706;2024-01-30T08:47:40;47.45;;;24.98;;
38653;SDS011;24413;52.450;20.706;2024-01-30T08:50:05;42.63;;;22.92;;
38653;SDS011;24413;52.450;20.706;2024-01-30T08:52:31;48.70;;;25.08;;
38653;SDS011;24413;52.450;20.706;2024-01-30T08:54:56;50.13;;;24.30;;
38653;SDS011;24413;52.450;20.706;2024-01-30T08:57:21;40.50;;;21.30;;
38653;SDS011;24413;52.450;20.706;2024-01-30T08:59:46;31.77;;;18.42;;
38653;SDS011;24413;52.450;20.706;2024-01-30T09:02:13;37.03;;;20.20;;
38653;SDS011;24413;52.450;20.706;2024-01-30T09:04:41;46.35;;;20.77;;
38653;SDS011;24413;52.450;20.706;2024-01-30T09:07:06;33.40;;;19.20;;
38653;SDS011;24413;52.450;20.706;2024-01-30T09:09:34;36.80;;;18.30;;
38653;SDS011;24413;52.450;20.706;2024-01-30T09:11:59;47.47;;;21.75;;
38653;SDS011;24413;52.450;20.706;2024-01-30T09:14:29;43.90;;;21.60;;
38653;SDS011;24413;52.450;20.706;2024-01-30T09:16:54;40.00;;;18.83;;
38653;SDS011;24413;52.450;20.706;2024-01-30T09:19:20;40.42;;;20.85;;
38653;SDS011;24413;52.450;20.706;2024-01-30T09:21:45;35.10;;;18.27;;
38653;SDS011;24413;52.450;20.706;2024-01-30T09:24:10;35.42;;;17.15;;
38653;SDS011;24413;52.450;20.706;2024-01-30T09:26:35;39.08;;;19.33;;
38653;SDS011;24413;52.450;20.706;2024-01-30T09:29:01;42.35;;;20.08;;
38653;SDS011;24413;52.450;20.706;2024-01-30T09:31:26;31.70;;;15.25;;
38653;SDS011;24413;52.450;20.706;2024-01-30T09:33:52;36.65;;;18.23;;
38653;SDS011;24413;52.450;20.706;2024-01-30T09:36:18;35.28;;;16.73;;
38653;SDS011;24413;52.450;20.706;2024-01-30T09:38:45;43.00;;;22.42;;
38653;SDS011;24413;52.450;20.706;2024-01-30T09:41:10;32.63;;;16.73;;
38653;SDS011;24413;52.450;20.706;2024-01-30T09:43:38;38.33;;;18.30;;
38653;SDS011;24413;52.450;20.706;2024-01-30T09:46:05;39.92;;;18.08;;
38653;SDS011;24413;52.450;20.706;2024-01-30T09:48:30;34.78;;;18.02;;
38653;SDS011;24413;52.450;20.706;2024-01-30T09:50:57;29.55;;;15.25;;
38653;SDS011;24413;52.450;20.706;2024-01-30T09:53:22;30.80;;;17.95;;
38653;SDS011;24413;52.450;20.706;2024-01-30T09:55:47;33.63;;;16.63;;
38653;SDS011;24413;52.450;20.706;2024-01-30T09:58:15;27.90;;;14.45;;
38653;SDS011;24413;52.450;20.706;2024-01-30T10:00:41;35.38;;;17.88;;
38653;SDS011;24413;52.450;20.706;2024-01-30T10:03:06;35.05;;;16.92;;
38653;SDS011;24413;52.450;20.706;2024-01-30T10:05:31;37.90;;;18.70;;
38653;SDS011;24413;52.450;20.706;2024-01-30T10:07:59;40.78;;;19.40;;
38653;SDS011;24413;52.450;20.706;2024-01-30T10:10:24;56.95;;;23.83;;
38653;SDS011;24413;52.450;20.706;2024-01-30T10:12:49;44.55;;;18.92;;
38653;SDS011;24413;52.450;20.706;2024-01-30T10:15:14;37.78;;;15.52;;
38653;SDS011;24413;52.450;20.706;2024-01-30T10:17:40;38.15;;;17.98;;
38653;SDS011;24413;52.450;20.706;2024-01-30T10:20:05;31.70;;;17.23;;
38653;SDS011;24413;52.450;20.706;2024-01-30T10:22:30;30.80;;;15.52;;
38653;SDS011;24413;52.450;20.706;2024-01-30T10:24:56;81.90;;;41.17;;
38653;SDS011;24413;52.450;20.706;2024-01-30T10:27:27;29.63;;;16.92;;
38653;SDS011;24413;52.450;20.706;2024-01-30T10:29:52;25.38;;;13.07;;
38653;SDS011;24413;52.450;20.706;2024-01-30T10:32:18;56.35;;;27.08;;
38653;SDS011;24413;52.450;20.706;2024-01-30T10:34:43;45.33;;;23.07;;
38653;SDS011;24413;52.450;20.706;2024-01-30T10:37:09;43.27;;;23.57;;
38653;SDS011;24413;52.450;20.706;2024-01-30T10:39:40;26.17;;;12.68;;
38653;SDS011;24413;52.450;20.706;2024-01-30T10:42:06;36.50;;;19.67;;
38653;SDS011;24413;52.450;20.706;2024-01-30T10:44:36;28.70;;;15.23;;
38653;SDS011;24413;52.450;20.706;2024-01-30T10:47:03;23.95;;;13.27;;
38653;SDS011;24413;52.450;20.706;2024-01-30T10:49:31;23.40;;;12.05;;
38653;SDS011;24413;52.450;20.706;2024-01-30T10:51:56;28.67;;;14.40;;
38653;SDS011;24413;52.450;20.706;2024-01-30T10:54:22;30.27;;;15.10;;
38653;SDS011;24413;52.450;20.706;2024-01-30T10:56:48;24.40;;;13.07;;
38653;SDS011;24413;52.450;20.706;2024-01-30T10:59:13;26.77;;;15.15;;
38653;SDS011;24413;52.450;20.706;2024-01-30T11:01:40;31.60;;;16.67;;
38653;SDS011;24413;52.450;20.706;2024-01-30T11:04:05;27.73;;;14.20;;
38653;SDS011;24413;52.450;20.706;2024-01-30T11:06:32;30.85;;;14.77;;
38653;SDS011;24413;52.450;20.706;2024-01-30T11:09:05;22.30;;;12.07;;
38653;SDS011;24413;52.450;20.706;2024-01-30T11:14:37;28.55;;;10.95;;
38653;SDS011;24413;52.450;20.706;2024-01-30T11:17:03;27.33;;;13.18;;
38653;SDS011;24413;52.450;20.706;2024-01-30T11:19:30;29.02;;;12.80;;
38653;SDS011;24413;52.450;20.706;2024-01-30T11:21:56;26.63;;;14.65;;
38653;SDS011;24413;52.450;20.706;2024-01-30T11:24:22;20.70;;;11.82;;
38653;SDS011;24413;52.450;20.706;2024-01-30T11:26:55;32.22;;;13.40;;
38653;SDS011;24413;52.450;20.706;2024-01-30T11:29:20;29.27;;;12.80;;
38653;SDS011;24413;52.450;20.706;2024-01-30T11:31:55;23.70;;;12.30;;
38653;SDS011;24413;52.450;20.706;2024-01-30T11:34:21;22.50;;;11.10;;
38653;SDS011;24413;52.450;20.706;2024-01-30T11:36:56;26.08;;;14.38;;
38653;SDS011;24413;52.450;20.706;2024-01-30T11:39:24;24.88;;;12.82;;
38653;SDS011;24413;52.450;20.706;2024-01-30T11:41:50;21.65;;;10.93;;
38653;SDS011;24413;52.450;20.706;2024-01-30T11:44:16;19.20;;;11.00;;
38653;SDS011;24413;52.450;20.706;2024-01-30T11:46:41;25.38;;;11.80;;
38653;SDS011;24413;52.450;20.706;2024-01-30T11:49:06;22.15;;;11.38;;
38653;SDS011;24413;52.450;20.706;2024-01-30T11:51:32;19.65;;;10.55;;
38653;SDS011;24413;52.450;20.706;2024-01-30T11:53:57;23.00;;;9.88;;
38653;SDS011;24413;52.450;20.706;2024-01-30T11:56:23;20.85;;;10.93;;
38653;SDS011;24413;52.450;20.706;2024-01-30T11:58:48;29.63;;;16.25;;
38653;SDS011;24413;52.450;20.706;2024-01-30T12:01:16;47.17;;;23.35;;
38653;SDS011;24413;52.450;20.706;2024-01-30T12:03:41;31.70;;;15.88;;
38653;SDS011;24413;52.450;20.706;2024-01-30T12:06:06;23.43;;;11.03;;
38653;SDS011;24413;52.450;20.706;2024-01-30T12:08:32;18.90;;;11.00;;
38653;SDS011;24413;52.450;20.706;2024-01-30T12:10:57;22.03;;;12.43;;
38653;SDS011;24413;52.450;20.706;2024-01-30T12:13:31;18.23;;;10.37;;
38653;SDS011;24413;52.450;20.706;2024-01-30T12:15:57;24.10;;;12.82;;
38653;SDS011;24413;52.450;20.706;2024-01-30T12:18:22;23.08;;;12.88;;
38653;SDS011;24413;52.450;20.706;2024-01-30T12:20:59;22.90;;;11.98;;
38653;SDS011;24413;52.450;20.706;2024-01-30T12:23:26;19.90;;;11.05;;
38653;SDS011;24413;52.450;20.706;2024-01-30T12:25:52;24.35;;;11.85;;
38653;SDS011;24413;52.450;20.706;2024-01-30T12:28:17;22.75;;;12.13;;
38653;SDS011;24413;52.450;20.706;2024-01-30T12:30:42;23.00;;;11.40;;
38653;SDS011;24413;52.450;20.706;2024-01-30T12:33:07;22.02;;;12.65;;
38653;SDS011;24413;52.450;20.706;2024-01-30T12:35:34;30.88;;;12.13;;
38653;SDS011;24413;52.450;20.706;2024-01-30T12:38:00;19.10;;;11.95;;
38653;SDS011;24413;52.450;20.706;2024-01-30T12:40:25;20.40;;;11.48;;
38653;SDS011;24413;52.450;20.706;2024-01-30T12:42:51;21.95;;;11.52;;
38653;SDS011;24413;52.450;20.706;2024-01-30T12:45:16;30.45;;;13.32;;
38653;SDS011;24413;52.450;20.706;2024-01-30T12:47:46;27.10;;;12.18;;
38653;SDS011;24413;52.450;20.706;2024-01-30T12:50:11;19.85;;;12.15;;
38653;SDS011;24413;52.450;20.706;2024-01-30T12:52:37;29.02;;;12.82;;
38653;SDS011;24413;52.450;20.706;2024-01-30T12:55:02;19.95;;;10.20;;
38653;SDS011;24413;52.450;20.706;2024-01-30T12:57:29;21.80;;;12.48;;
38653;SDS011;24413;52.450;20.706;2024-01-30T12:59:54;20.50;;;12.60;;
38653;SDS011;24413;52.450;20.706;2024-01-30T13:02:19;27.40;;;16.10;;
38653;SDS011;24413;52.450;20.706;2024-01-30T13:04:44;23.92;;;13.25;;
38653;SDS011;24413;52.450;20.706;2024-01-30T13:07:10;35.15;;;16.90;;
38653;SDS011;24413;52.450;20.706;2024-01-30T13:09:36;40.80;;;22.80;;
38653;SDS011;24413;52.450;20.706;2024-01-30T13:12:01;58.50;;;34.28;;
38653;SDS011;24413;52.450;20.706;2024-01-30T13:14:27;34.90;;;13.90;;
38653;SDS011;24413;52.450;20.706;2024-01-30T13:16:52;34.25;;;16.58;;
38653;SDS011;24413;52.450;20.706;2024-01-30T13:19:18;43.03;;;16.70;;
38653;SDS011;24413;52.450;20.706;2024-01-30T13:21:43;38.03;;;18.33;;
38653;SDS011;24413;52.450;20.706;2024-01-30T13:24:08;31.43;;;15.33;;
38653;SDS011;24413;52.450;20.706;2024-01-30T13:26:33;39.40;;;16.33;;
38653;SDS011;24413;52.450;20.706;2024-01-30T13:28:58;45.23;;;22.13;;
38653;SDS011;24413;52.450;20.706;2024-01-30T13:31:24;47.00;;;22.10;;
38653;SDS011;24413;52.450;20.706;2024-01-30T13:33:50;44.53;;;22.48;;
38653;SDS011;24413;52.450;20.706;2024-01-30T13:36:15;41.17;;;21.67;;
38653;SDS011;24413;52.450;20.706;2024-01-30T13:38:40;59.47;;;31.08;;
38653;SDS011;24413;52.450;20.706;2024-01-30T13:41:06;43.50;;;23.00;;
38653;SDS011;24413;52.450;20.706;2024-01-30T13:43:31;49.85;;;26.92;;
38653;SDS011;24413;52.450;20.706;2024-01-30T13:45:59;36.22;;;19.02;;
38653;SDS011;24413;52.450;20.706;2024-01-30T13:48:24;47.95;;;23.92;;
38653;SDS011;24413;52.450;20.706;2024-01-30T13:50:50;40.40;;;21.00;;
38653;SDS011;24413;52.450;20.706;2024-01-30T13:53:15;24.75;;;13.93;;
38653;SDS011;24413;52.450;20.706;2024-01-30T13:55:40;38.38;;;19.58;;
38653;SDS011;24413;52.450;20.706;2024-01-30T13:58:06;39.28;;;15.15;;
38653;SDS011;24413;52.450;20.706;2024-01-30T14:00:31;27.90;;;14.07;;
38653;SDS011;24413;52.450;20.706;2024-01-30T14:02:57;33.75;;;17.25;;
38653;SDS011;24413;52.450;20.706;2024-01-30T14:05:23;29.25;;;14.98;;